Time,TemperatureF,DewpointF,PressureIn,WindDirection,WindDirectionDegrees,WindSpeedMPH,WindSpeedGustMPH,Humidity,HourlyPrecipIn,Conditions,Clouds,dailyrainin,SoftwareType,DateUTC
2013-05-13 00:01:00,41.2,31.8,30.09,NNE,24,0.0,0.0,69,0.00,CLR,,0.00,WeatherDisplay:10.37,2013-05-13 04:01:00,
2013-05-13 00:06:00,40.8,31.8,30.08,NNE,24,0.0,0.0,70,0.00,CLR,,0.00,WeatherDisplay:10.37,2013-05-13 04:06:00,
2013-05-13 00:11:00,40.8,31.8,30.09,NNE,22,0.0,0.0,70,0.00,CLR,,0.00,WeatherDisplay:10.37,2013-05-13 04:11:00,
2013-05-13 00:16:00,40.5,31.8,30.08,NNE,22,0.0,0.0,71,0.00,CLR,,0.00,WeatherDisplay:10.37,2013-05-13 04:16:00,
2013-05-13 00:21:00,40.3,32.0,30.08,NNE,22,0.0,0.0,72,0.00,CLR,,0.00,WeatherDisplay:10.37,2013-05-13 04:21:00,
2013-05-13 00:26:00,40.1,31.8,30.08,NNE,22,0.0,0.0,72,0.00,CLR,,0.00,WeatherDisplay:10.37,2013-05-13 04:26:00,
2013-05-13 00:31:00,39.9,31.6,30.08,NNE,22,0.0,0.0,72,0.00,CLR,,0.00,WeatherDisplay:10.37,2013-05-13 04:31:00,
2013-05-13 00:36:00,39.9,32.0,30.08,NNE,22,0.0,0.0,73,0.00,CLR,,0.00,WeatherDisplay:10.37,2013-05-13 04:36:00,
2013-05-13 00:41:00,39.7,31.8,30.09,NNE,22,0.0,0.0,73,0.00,CLR,,0.00,WeatherDisplay:10.37,2013-05-13 04:41:00,
2013-05-13 00:46:00,39.4,31.4,30.08,NNE,22,0.0,0.0,73,0.00,CLR,,0.00,WeatherDisplay:10.37,2013-05-13 04:46:00,
2013-05-13 00:51:00,39.4,31.4,30.08,NNE,22,0.0,0.0,73,0.00,CLR,,0.00,WeatherDisplay:10.37,2013-05-13 04:51:00,
2013-05-13 00:56:00,39.4,31.8,30.09,NNE,22,0.0,0.0,74,0.00,CLR,,0.00,WeatherDisplay:10.37,2013-05-13 04:56:00,
2013-05-13 01:01:00,39.2,31.6,30.08,NNE,22,0.0,0.0,74,0.00,CLR,,0.00,WeatherDisplay:10.37,2013-05-13 05:01:00,
2013-05-13 01:06:00,39.0,31.8,30.09,NNE,22,0.0,0.0,75,0.00,CLR,,0.00,WeatherDisplay:10.37,2013-05-13 05:06:00,
2013-05-13 01:11:00,39.0,31.8,30.08,NNE,22,0.0,0.0,75,0.00,CLR,,0.00,WeatherDisplay:10.37,2013-05-13 05:11:00,
2013-05-13 01:16:00,39.0,32.1,30.08,NNE,22,0.0,0.0,76,0.00,CLR,,0.00,WeatherDisplay:10.37,2013-05-13 05:16:00,
2013-05-13 01:21:00,38.8,31.9,30.08,NNE,22,0.0,0.0,76,0.00,CLR,,0.00,WeatherDisplay:10.37,2013-05-13 05:21:00,
2013-05-13 01:26:00,38.8,31.9,30.08,NNE,22,0.0,0.0,76,0.00,CLR,,0.00,WeatherDisplay:10.37,2013-05-13 05:26:00,
2013-05-13 01:31:00,38.3,31.4,30.08,NNE,22,0.0,0.0,76,0.00,CLR,,0.00,WeatherDisplay:10.37,2013-05-13 05:31:00,
2013-05-13 01:36:00,38.1,31.5,30.08,NNE,22,0.0,0.0,77,0.00,CLR,,0.00,WeatherDisplay:10.37,2013-05-13 05:36:00,
2013-05-13 01:41:00,37.9,31.4,30.08,NNE,22,0.0,0.0,77,0.00,CLR,,0.00,WeatherDisplay:10.37,2013-05-13 05:41:00,
2013-05-13 01:46:00,37.9,31.7,30.08,NNE,22,0.0,0.0,78,0.00,CLR,,0.00,WeatherDisplay:10.37,2013-05-13 05:46:00,
2013-05-13 01:51:00,37.9,32.0,30.08,NNE,22,0.0,0.0,79,0.00,CLR,,0.00,WeatherDisplay:10.37,2013-05-13 05:51:00,
2013-05-13 01:56:00,37.9,32.0,30.08,NNE,22,0.0,0.0,79,0.00,CLR,,0.00,WeatherDisplay:10.37,2013-05-13 05:56:00,
2013-05-13 02:01:00,37.8,31.5,30.08,NNE,22,0.0,0.0,78,0.00,CLR,,0.00,WeatherDisplay:10.37,2013-05-13 06:01:00,
2013-05-13 02:06:00,37.8,31.5,30.08,NNE,22,0.0,0.0,78,0.00,CLR,,0.00,WeatherDisplay:10.37,2013-05-13 06:06:00,
2013-05-13 02:11:00,37.8,31.5,30.08,NNE,22,0.0,0.0,78,0.00,CLR,,0.00,WeatherDisplay:10.37,2013-05-13 06:11:00,
2013-05-13 02:16:00,37.6,31.3,30.08,NNE,22,0.0,0.0,78,0.00,CLR,,0.00,WeatherDisplay:10.37,2013-05-13 06:16:00,
2013-05-13 02:21:00,37.6,31.3,30.08,NNE,22,0.0,0.0,78,0.00,CLR,,0.00,WeatherDisplay:10.37,2013-05-13 06:21:00,
2013-05-13 02:26:00,37.4,31.2,30.07,NNE,22,0.0,0.0,78,0.00,CLR,,0.00,WeatherDisplay:10.37,2013-05-13 06:26:00,
2013-05-13 02:31:00,37.2,31.0,30.07,NNE,22,0.0,0.0,78,0.00,CLR,,0.00,WeatherDisplay:10.37,2013-05-13 06:31:00,
2013-05-13 02:36:00,37.0,30.8,30.07,NNE,22,0.0,0.0,78,0.00,CLR,,0.00,WeatherDisplay:10.37,2013-05-13 06:36:00,
2013-05-13 02:41:00,37.0,31.1,30.08,NNE,22,0.0,0.0,79,0.00,CLR,,0.00,WeatherDisplay:10.37,2013-05-13 06:41:00,
2013-05-13 02:46:00,36.9,31.0,30.07,NNE,22,0.0,0.0,79,0.00,CLR,,0.00,WeatherDisplay:10.37,2013-05-13 06:46:00,
2013-05-13 02:51:00,36.7,30.8,30.07,NNE,22,0.0,0.0,79,0.00,CLR,,0.00,WeatherDisplay:10.37,2013-05-13 06:51:00,
2013-05-13 02:56:00,36.7,31.1,30.07,NNE,22,0.0,0.0,80,0.00,CLR,,0.00,WeatherDisplay:10.37,2013-05-13 06:56:00,
2013-05-13 03:01:00,36.7,31.1,30.07,NNE,22,0.0,0.0,80,0.00,CLR,,0.00,WeatherDisplay:10.37,2013-05-13 07:01:00,
2013-05-13 03:06:00,36.7,31.1,30.07,NNE,22,0.0,0.0,80,0.00,CLR,,0.00,WeatherDisplay:10.37,2013-05-13 07:06:00,
2013-05-13 03:11:00,36.7,31.1,30.07,NNE,22,0.0,0.0,80,0.00,CLR,,0.00,WeatherDisplay:10.37,2013-05-13 07:11:00,
2013-05-13 03:16:00,37.0,31.4,30.07,NNE,22,0.0,0.0,80,0.00,CLR,,0.00,WeatherDisplay:10.37,2013-05-13 07:16:00,
2013-05-13 03:21:00,37.0,31.4,30.07,NNE,22,0.0,0.0,80,0.00,CLR,,0.00,WeatherDisplay:10.37,2013-05-13 07:21:00,
2013-05-13 03:26:00,37.0,31.4,30.07,NNE,22,0.0,0.0,80,0.00,CLR,,0.00,WeatherDisplay:10.37,2013-05-13 07:26:00,
2013-05-13 03:31:00,37.0,31.4,30.07,NNE,22,0.0,0.0,80,0.00,CLR,,0.00,WeatherDisplay:10.37,2013-05-13 07:31:00,
2013-05-13 03:37:00,37.0,31.4,30.07,NNE,22,0.0,0.0,80,0.00,CLR,,0.00,WeatherDisplay:10.37,2013-05-13 07:37:00,
2013-05-13 03:42:00,36.7,31.1,30.07,NNE,22,0.0,0.0,80,0.00,CLR,,0.00,WeatherDisplay:10.37,2013-05-13 07:42:00,
2013-05-13 03:47:00,36.5,30.9,30.07,NNE,22,0.0,0.0,80,0.00,CLR,,0.00,WeatherDisplay:10.37,2013-05-13 07:47:00,
2013-05-13 03:52:00,36.5,30.9,30.07,NNE,22,0.0,0.0,80,0.00,CLR,,0.00,WeatherDisplay:10.37,2013-05-13 07:52:00,
2013-05-13 03:57:00,36.3,31.0,30.07,NNE,22,0.0,0.0,81,0.00,CLR,,0.00,WeatherDisplay:10.37,2013-05-13 07:57:00,
2013-05-13 04:02:00,36.3,31.0,30.06,NNE,22,0.0,0.0,81,0.00,CLR,,0.00,WeatherDisplay:10.37,2013-05-13 08:02:00,
2013-05-13 04:07:00,36.1,30.9,30.07,NNE,22,0.0,0.0,81,0.00,CLR,,0.00,WeatherDisplay:10.37,2013-05-13 08:07:00,
2013-05-13 04:12:00,36.0,30.7,30.07,NNE,22,0.0,0.0,81,0.00,CLR,,0.00,WeatherDisplay:10.37,2013-05-13 08:12:00,
2013-05-13 04:17:00,35.8,30.5,30.07,NNE,22,0.0,0.0,81,0.00,CLR,,0.00,WeatherDisplay:10.37,2013-05-13 08:17:00,
2013-05-13 04:22:00,35.6,30.0,30.06,NNE,22,0.0,0.0,80,0.00,CLR,,0.00,WeatherDisplay:10.37,2013-05-13 08:22:00,
2013-05-13 04:27:00,35.4,30.2,30.07,NNE,22,0.0,0.0,81,0.00,CLR,,0.00,WeatherDisplay:10.37,2013-05-13 08:27:00,
2013-05-13 04:32:00,35.4,30.2,30.07,NNE,22,0.0,0.0,81,0.00,CLR,,0.00,WeatherDisplay:10.37,2013-05-13 08:32:00,
2013-05-13 04:37:00,35.2,30.3,30.07,NNE,22,0.0,0.0,82,0.00,CLR,,0.00,WeatherDisplay:10.37,2013-05-13 08:37:00,
2013-05-13 04:42:00,35.2,30.3,30.08,NNE,22,0.0,0.0,82,0.00,CLR,,0.00,WeatherDisplay:10.37,2013-05-13 08:42:00,
2013-05-13 04:47:00,35.2,30.3,30.07,NNE,22,0.0,0.0,82,0.00,CLR,,0.00,WeatherDisplay:10.37,2013-05-13 08:47:00,
2013-05-13 04:52:00,35.2,30.3,30.07,NNE,22,0.0,0.0,82,0.00,CLR,,0.00,WeatherDisplay:10.37,2013-05-13 08:52:00,
2013-05-13 04:57:00,35.2,30.3,30.07,NNE,22,0.0,0.0,82,0.00,CLR,,0.00,WeatherDisplay:10.37,2013-05-13 08:57:00,
2013-05-13 05:02:00,35.2,30.3,30.07,NNE,22,0.0,0.0,82,0.00,CLR,,0.00,WeatherDisplay:10.37,2013-05-13 09:02:00,
2013-05-13 05:07:00,35.2,30.3,30.07,NNE,22,0.0,0.0,82,0.00,CLR,,0.00,WeatherDisplay:10.37,2013-05-13 09:07:00,
2013-05-13 05:12:00,35.2,30.6,30.07,NNE,22,0.0,0.0,83,0.00,CLR,,0.00,WeatherDisplay:10.37,2013-05-13 09:12:00,
2013-05-13 05:17:00,35.2,30.6,30.07,NNE,22,0.0,0.0,83,0.00,CLR,,0.00,WeatherDisplay:10.37,2013-05-13 09:17:00,
2013-05-13 05:22:00,35.1,30.4,30.07,NNE,22,0.0,0.0,83,0.00,CLR,,0.00,WeatherDisplay:10.37,2013-05-13 09:22:00,
2013-05-13 05:27:00,34.9,30.2,30.07,NNE,22,0.0,0.0,83,0.00,CLR,,0.00,WeatherDisplay:10.37,2013-05-13 09:27:00,
2013-05-13 05:32:00,34.9,30.2,30.07,NNE,22,0.0,0.0,83,0.00,CLR,,0.00,WeatherDisplay:10.37,2013-05-13 09:32:00,
2013-05-13 05:37:00,34.9,30.2,30.07,NNE,22,0.0,0.0,83,0.00,CLR,,0.00,WeatherDisplay:10.37,2013-05-13 09:37:00,
2013-05-13 05:42:00,34.9,30.2,30.07,NNE,22,0.0,0.0,83,0.00,CLR,,0.00,WeatherDisplay:10.37,2013-05-13 09:42:00,
2013-05-13 05:47:00,34.7,30.1,30.07,NNE,22,0.0,0.0,83,0.00,CLR,,0.00,WeatherDisplay:10.37,2013-05-13 09:47:00,
2013-05-13 05:52:00,34.7,30.1,30.08,NNE,22,0.0,0.0,83,0.00,CLR,,0.00,WeatherDisplay:10.37,2013-05-13 09:52:00,
2013-05-13 05:57:00,34.5,29.9,30.08,NNE,22,0.0,0.0,83,0.00,CLR,,0.00,WeatherDisplay:10.37,2013-05-13 09:57:00,
2013-05-13 06:02:00,34.5,30.2,30.08,NNE,22,0.0,0.0,84,0.00,CLR,,0.00,WeatherDisplay:10.37,2013-05-13 10:02:00,
2013-05-13 06:07:00,34.5,30.2,30.08,NNE,22,0.0,0.0,84,0.00,CLR,,0.00,WeatherDisplay:10.37,2013-05-13 10:07:00,
2013-05-13 06:12:00,34.5,30.2,30.08,NNE,22,0.0,0.0,84,0.00,CLR,,0.00,WeatherDisplay:10.37,2013-05-13 10:12:00,
2013-05-13 06:17:00,34.7,30.4,30.08,NNE,22,0.0,0.0,84,0.00,CLR,,0.00,WeatherDisplay:10.37,2013-05-13 10:17:00,
2013-05-13 06:22:00,34.9,30.8,30.08,NNE,22,0.0,0.0,85,0.00,CLR,,0.00,WeatherDisplay:10.37,2013-05-13 10:22:00,
2013-05-13 06:27:00,34.9,30.8,30.08,NNE,22,0.0,0.0,85,0.00,CLR,,0.00,WeatherDisplay:10.37,2013-05-13 10:27:00,
2013-05-13 06:32:00,34.9,30.8,30.08,NNE,22,0.0,0.0,85,0.00,CLR,,0.00,WeatherDisplay:10.37,2013-05-13 10:32:00,
2013-05-13 06:37:00,34.9,30.8,30.09,NNE,22,0.0,0.0,85,0.00,CLR,,0.00,WeatherDisplay:10.37,2013-05-13 10:37:00,
2013-05-13 06:42:00,34.9,30.8,30.09,NNE,22,0.0,0.0,85,0.00,CLR,,0.00,WeatherDisplay:10.37,2013-05-13 10:42:00,
2013-05-13 06:47:00,34.9,30.8,30.09,NNE,22,0.0,0.0,85,0.00,CLR,,0.00,WeatherDisplay:10.37,2013-05-13 10:47:00,
2013-05-13 06:52:00,34.9,30.8,30.09,NNE,22,0.0,0.0,85,0.00,CLR,,0.00,WeatherDisplay:10.37,2013-05-13 10:52:00,
2013-05-13 06:57:00,34.9,30.8,30.09,NNE,22,0.0,0.0,85,0.00,CLR,,0.00,WeatherDisplay:10.37,2013-05-13 10:57:00,
2013-05-13 07:02:00,35.2,31.2,30.09,NNE,22,0.0,0.0,85,0.00,CLR,,0.00,WeatherDisplay:10.37,2013-05-13 11:02:00,
2013-05-13 07:07:00,35.4,31.4,30.09,NNE,22,0.0,0.0,85,0.00,CLR,,0.00,WeatherDisplay:10.37,2013-05-13 11:07:00,
2013-05-13 07:12:00,35.4,31.4,30.10,NNE,24,0.0,0.0,85,0.00,CLR,,0.00,WeatherDisplay:10.37,2013-05-13 11:12:00,
2013-05-13 07:17:00,35.4,31.4,30.10,NNE,24,0.0,0.0,85,0.00,CLR,,0.00,WeatherDisplay:10.37,2013-05-13 11:17:00,
2013-05-13 07:22:00,35.8,31.7,30.10,NNE,24,0.0,0.0,85,0.00,CLR,,0.00,WeatherDisplay:10.37,2013-05-13 11:22:00,
2013-05-13 07:27:00,36.1,32.1,30.11,NNE,24,0.0,0.0,85,0.00,CLR,,0.00,WeatherDisplay:10.37,2013-05-13 11:27:00,
2013-05-13 07:32:00,36.3,32.2,30.11,NNE,24,0.0,0.0,85,0.00,CLR,,0.00,WeatherDisplay:10.37,2013-05-13 11:32:00,
2013-05-13 07:37:00,36.7,32.6,30.11,NNE,24,0.0,0.0,85,0.00,CLR,,0.00,WeatherDisplay:10.37,2013-05-13 11:37:00,
2013-05-13 07:42:00,37.0,32.9,30.11,NNE,24,0.0,0.0,85,0.00,CLR,,0.00,WeatherDisplay:10.37,2013-05-13 11:42:00,
2013-05-13 07:47:00,37.0,32.7,30.11,NNE,24,0.0,0.0,84,0.00,CLR,,0.00,WeatherDisplay:10.37,2013-05-13 11:47:00,
2013-05-13 07:52:00,37.6,33.2,30.10,NNE,24,0.0,0.0,84,0.00,CLR,,0.00,WeatherDisplay:10.37,2013-05-13 11:52:00,
2013-05-13 07:57:00,37.9,33.5,30.11,NNE,24,0.0,0.0,84,0.00,CLR,,0.00,WeatherDisplay:10.37,2013-05-13 11:57:00,
2013-05-13 08:02:00,38.3,33.6,30.11,NNE,24,0.0,0.0,83,0.00,CLR,,0.00,WeatherDisplay:10.37,2013-05-13 12:02:00,
2013-05-13 08:07:00,38.8,34.1,30.11,NNE,24,0.0,0.0,83,0.00,CLR,,0.00,WeatherDisplay:10.37,2013-05-13 12:07:00,
2013-05-13 08:12:00,39.7,34.7,30.11,NNE,24,0.0,0.0,82,0.00,CLR,,0.00,WeatherDisplay:10.37,2013-05-13 12:12:00,
2013-05-13 08:17:00,40.3,34.9,30.11,NNE,24,0.0,0.0,81,0.00,CLR,,0.00,WeatherDisplay:10.37,2013-05-13 12:17:00,
2013-05-13 08:22:00,41.4,35.3,30.11,NNE,24,0.0,0.0,79,0.00,CLR,,0.00,WeatherDisplay:10.37,2013-05-13 12:22:00,
2013-05-13 08:27:00,42.1,35.4,30.11,NNE,24,0.0,0.0,77,0.00,CLR,,0.00,WeatherDisplay:10.37,2013-05-13 12:27:00,
2013-05-13 08:32:00,42.4,35.4,30.12,NNE,24,0.0,0.0,76,0.00,CLR,,0.00,WeatherDisplay:10.37,2013-05-13 12:32:00,
2013-05-13 08:37:00,43.2,35.4,30.12,NNE,24,0.0,0.0,74,0.00,CLR,,0.00,WeatherDisplay:10.37,2013-05-13 12:37:00,
2013-05-13 08:42:00,43.5,35.1,30.12,NNE,24,0.0,0.0,72,0.00,CLR,,0.00,WeatherDisplay:10.37,2013-05-13 12:42:00,
2013-05-13 08:47:00,44.1,35.3,30.12,NNE,24,0.0,0.0,71,0.00,CLR,,0.00,WeatherDisplay:10.37,2013-05-13 12:47:00,
2013-05-13 08:52:00,44.4,35.2,30.12,NNE,24,0.0,0.0,70,0.00,CLR,,0.00,WeatherDisplay:10.37,2013-05-13 12:52:00,
2013-05-13 08:57:00,44.8,35.6,30.12,NNE,24,0.0,0.0,70,0.00,CLR,,0.00,WeatherDisplay:10.37,2013-05-13 12:57:00,
2013-05-13 09:02:00,45.5,35.5,30.12,NNE,24,0.0,0.0,68,0.00,CLR,,0.00,WeatherDisplay:10.37,2013-05-13 13:02:00,
2013-05-13 09:07:00,46.4,34.9,30.12,NNE,24,0.0,0.0,64,0.00,CLR,,0.00,WeatherDisplay:10.37,2013-05-13 13:07:00,
2013-05-13 09:12:00,46.9,35.4,30.12,NNE,24,0.0,0.0,64,0.00,CLR,,0.00,WeatherDisplay:10.37,2013-05-13 13:12:00,
2013-05-13 09:17:00,47.5,35.1,30.13,NNE,24,0.0,0.0,62,0.00,CLR,,0.00,WeatherDisplay:10.37,2013-05-13 13:17:00,
2013-05-13 09:22:00,47.3,34.9,30.13,NNE,24,0.0,0.0,62,0.00,CLR,,0.00,WeatherDisplay:10.37,2013-05-13 13:22:00,
2013-05-13 09:27:00,46.9,34.6,30.13,NNE,24,0.0,0.0,62,0.00,CLR,,0.00,WeatherDisplay:10.37,2013-05-13 13:27:00,
2013-05-13 09:32:00,46.9,32.9,30.14,NNE,24,0.0,0.0,58,0.00,CLR,,0.00,WeatherDisplay:10.37,2013-05-13 13:32:00,
2013-05-13 09:37:00,47.1,33.9,30.14,NNE,24,0.0,0.0,60,0.00,CLR,,0.00,WeatherDisplay:10.37,2013-05-13 13:37:00,
2013-05-13 09:42:00,46.6,33.4,30.14,NNE,24,0.0,0.0,60,0.00,CLR,,0.00,WeatherDisplay:10.37,2013-05-13 13:42:00,
2013-05-13 09:47:00,46.2,33.5,30.14,NNE,24,0.0,0.0,61,0.00,CLR,,0.00,WeatherDisplay:10.37,2013-05-13 13:47:00,
2013-05-13 09:52:00,46.6,33.0,30.14,NNE,24,0.0,0.0,59,0.00,CLR,,0.00,WeatherDisplay:10.37,2013-05-13 13:52:00,
2013-05-13 09:57:00,47.1,34.4,30.14,NNE,24,0.0,0.0,61,0.00,CLR,,0.00,WeatherDisplay:10.37,2013-05-13 13:57:00,
2013-05-13 10:02:00,48.0,35.2,30.14,NNE,24,0.0,0.0,61,0.00,CLR,,0.00,WeatherDisplay:10.37,2013-05-13 14:02:00,
2013-05-13 10:07:00,49.3,35.5,30.14,NNE,24,0.0,0.0,59,0.00,CLR,,0.00,WeatherDisplay:10.37,2013-05-13 14:07:00,
2013-05-13 10:12:00,50.5,35.9,30.14,NNE,24,0.0,0.0,57,0.00,CLR,,0.00,WeatherDisplay:10.37,2013-05-13 14:12:00,
2013-05-13 10:17:00,50.9,35.7,30.14,NNE,24,0.0,0.0,56,0.00,CLR,,0.00,WeatherDisplay:10.37,2013-05-13 14:17:00,
2013-05-13 10:22:00,50.2,34.6,30.14,NNE,22,0.0,0.0,55,0.00,CLR,,0.00,WeatherDisplay:10.37,2013-05-13 14:22:00,
2013-05-13 10:27:00,48.4,33.4,30.14,NNE,22,0.0,0.0,56,0.00,CLR,,0.00,WeatherDisplay:10.37,2013-05-13 14:27:00,
2013-05-13 10:32:00,48.0,33.1,30.14,NNE,22,5.1,5.3,56,0.00,CLR,,0.00,WeatherDisplay:10.37,2013-05-13 14:32:00,
2013-05-13 10:37:00,47.8,31.5,30.14,NNE,22,6.8,6.8,53,0.00,CLR,,0.00,WeatherDisplay:10.37,2013-05-13 14:37:00,
2013-05-13 10:42:00,48.0,32.6,30.14,NNE,22,5.1,5.3,55,0.00,CLR,,0.00,WeatherDisplay:10.37,2013-05-13 14:42:00,
2013-05-13 10:47:00,48.7,32.8,30.14,NNE,22,0.0,0.0,54,0.00,CLR,,0.00,WeatherDisplay:10.37,2013-05-13 14:47:00,
2013-05-13 10:52:00,49.1,33.2,30.14,NNE,24,0.0,0.0,54,0.00,CLR,,0.00,WeatherDisplay:10.37,2013-05-13 14:52:00,
2013-05-13 10:57:00,49.8,34.3,30.14,NNE,24,0.0,0.0,55,0.00,CLR,,0.00,WeatherDisplay:10.37,2013-05-13 14:57:00,
2013-05-13 11:02:00,49.8,32.9,30.14,NNE,24,0.0,0.0,52,0.00,CLR,,0.00,WeatherDisplay:10.37,2013-05-13 15:02:00,
2013-05-13 11:07:00,49.8,33.4,30.14,NNE,24,0.0,0.0,53,0.00,CLR,,0.00,WeatherDisplay:10.37,2013-05-13 15:07:00,
2013-05-13 11:12:00,50.2,32.7,30.14,NNE,24,0.0,0.0,51,0.00,CLR,,0.00,WeatherDisplay:10.37,2013-05-13 15:12:00,
2013-05-13 11:17:00,50.2,33.2,30.14,NNE,24,0.0,0.0,52,0.00,CLR,,0.00,WeatherDisplay:10.37,2013-05-13 15:17:00,
2013-05-13 11:22:00,49.1,30.7,30.14,NNE,22,1.7,1.7,49,0.00,CLR,,0.00,WeatherDisplay:10.37,2013-05-13 15:22:00,
2013-05-13 11:27:00,48.9,31.1,30.14,NNE,22,5.8,5.8,50,0.00,CLR,,0.00,WeatherDisplay:10.37,2013-05-13 15:27:00,
2013-05-13 11:32:00,49.6,32.2,30.14,NNE,24,6.5,6.5,51,0.00,CLR,,0.00,WeatherDisplay:10.37,2013-05-13 15:32:00,
2013-05-13 11:37:00,50.7,33.7,30.14,NNE,24,21.9,23.0,52,0.00,CLR,,0.00,WeatherDisplay:10.37,2013-05-13 15:37:00,
2013-05-13 11:42:00,51.4,33.9,30.14,NNE,24,35.4,35.4,51,0.00,,,0.00,WeatherDisplay:10.37,2013-05-13 15:42:00,
2013-05-13 11:47:00,51.8,33.2,30.14,NNE,24,35.7,35.7,49,0.00,,,0.00,WeatherDisplay:10.37,2013-05-13 15:47:00,
2013-05-13 11:52:00,50.9,32.4,30.14,NNE,24,34.5,35.0,49,0.00,,,0.00,WeatherDisplay:10.37,2013-05-13 15:52:00,
2013-05-13 11:57:00,50.7,32.7,30.14,NNE,22,34.5,34.5,50,0.00,,,0.00,WeatherDisplay:10.37,2013-05-13 15:57:00,
2013-05-13 12:02:00,51.1,32.6,30.14,NNE,24,4.6,5.5,49,0.00,CLR,,0.00,WeatherDisplay:10.37,2013-05-13 16:02:00,
2013-05-13 12:07:00,51.4,32.4,30.14,NNE,24,35.4,35.4,48,0.00,CLR,,0.00,WeatherDisplay:10.37,2013-05-13 16:07:00,
2013-05-13 12:12:00,51.1,31.5,30.14,NNE,24,34.5,35.4,47,0.00,,,0.00,WeatherDisplay:10.37,2013-05-13 16:12:00,
2013-05-13 12:17:00,51.4,32.4,30.14,NNE,24,35.7,35.7,48,0.00,,,0.00,WeatherDisplay:10.37,2013-05-13 16:17:00,
2013-05-13 12:22:00,52.0,32.9,30.14,NNE,24,35.7,35.7,48,0.00,,,0.00,WeatherDisplay:10.37,2013-05-13 16:22:00,
2013-05-13 12:27:00,52.2,32.5,30.14,NNE,24,35.7,35.7,47,0.00,,,0.00,WeatherDisplay:10.37,2013-05-13 16:27:00,
2013-05-13 12:32:00,52.9,33.7,30.14,NNE,24,35.7,35.7,48,0.00,,,0.00,WeatherDisplay:10.37,2013-05-13 16:32:00,
2013-05-13 12:37:00,53.4,33.1,30.13,NNE,24,35.7,35.7,46,0.00,,,0.00,WeatherDisplay:10.37,2013-05-13 16:37:00,
2013-05-13 12:42:00,53.4,32.6,30.14,NNE,24,35.7,35.7,45,0.00,,,0.00,WeatherDisplay:10.37,2013-05-13 16:42:00,
2013-05-13 12:47:00,52.5,30.1,30.13,NNE,22,9.2,9.2,42,0.00,,,0.00,WeatherDisplay:10.37,2013-05-13 16:47:00,
2013-05-13 12:52:00,52.5,31.2,30.13,NNE,22,9.2,9.2,44,0.00,CLR,,0.00,WeatherDisplay:10.37,2013-05-13 16:52:00,
2013-05-13 12:57:00,52.0,31.8,30.13,NNE,22,6.9,6.9,46,0.00,CLR,,0.00,WeatherDisplay:10.37,2013-05-13 16:57:00,
2013-05-13 13:02:00,53.8,32.9,30.13,NNE,24,7.8,7.8,45,0.00,CLR,,0.00,WeatherDisplay:10.37,2013-05-13 17:02:00,
2013-05-13 13:07:00,54.7,33.2,30.13,NNE,24,33.7,33.7,44,0.00,CLR,,0.00,WeatherDisplay:10.37,2013-05-13 17:07:00,
2013-05-13 13:12:00,54.3,32.3,30.13,NNE,24,34.5,34.5,43,0.00,,,0.00,WeatherDisplay:10.37,2013-05-13 17:12:00,
2013-05-13 13:17:00,54.3,32.8,30.13,NNE,22,3.6,3.8,44,0.00,CLR,,0.00,WeatherDisplay:10.37,2013-05-13 17:17:00,
2013-05-13 13:22:00,53.4,30.9,30.13,NNE,22,4.6,4.6,42,0.00,CLR,,0.00,WeatherDisplay:10.37,2013-05-13 17:22:00,
2013-05-13 13:27:00,53.2,31.3,30.13,NNE,22,3.5,0.0,43,0.00,CLR,,0.00,WeatherDisplay:10.37,2013-05-13 17:27:00,
2013-05-13 13:32:00,52.9,31.5,30.13,NNE,22,8.1,8.3,44,0.00,CLR,,0.00,WeatherDisplay:10.37,2013-05-13 17:32:00,
2013-05-13 13:37:00,51.8,30.6,30.13,NNE,22,5.8,5.8,44,0.00,CLR,,0.00,WeatherDisplay:10.37,2013-05-13 17:37:00,
2013-05-13 13:42:00,51.4,30.2,30.13,NNE,22,3.6,3.8,44,0.00,CLR,,0.00,WeatherDisplay:10.37,2013-05-13 17:42:00,
2013-05-13 13:47:00,51.3,31.2,30.12,NNE,22,3.5,3.5,46,0.00,CLR,,0.00,WeatherDisplay:10.37,2013-05-13 17:47:00,
2013-05-13 13:52:00,52.7,31.9,30.12,NNE,22,0.0,0.5,45,0.00,CLR,,0.00,WeatherDisplay:10.37,2013-05-13 17:52:00,
2013-05-13 13:57:00,53.2,32.4,30.12,NNE,22,8.1,8.5,45,0.00,CLR,,0.00,WeatherDisplay:10.37,2013-05-13 17:57:00,
2013-05-13 14:02:00,52.7,31.4,30.12,NNE,22,5.8,5.9,44,0.00,CLR,,0.00,WeatherDisplay:10.37,2013-05-13 18:02:00,
2013-05-13 14:07:00,52.7,31.9,30.12,NNE,22,7.2,7.2,45,0.00,CLR,,0.00,WeatherDisplay:10.37,2013-05-13 18:07:00,
2013-05-13 14:12:00,53.2,32.4,30.11,NNE,22,4.6,4.6,45,0.00,CLR,,0.00,WeatherDisplay:10.37,2013-05-13 18:12:00,
2013-05-13 14:17:00,54.1,33.2,30.11,NNE,22,1.2,8.7,45,0.00,CLR,,0.00,WeatherDisplay:10.37,2013-05-13 18:17:00,
2013-05-13 14:22:00,53.8,31.8,30.11,NNE,22,5.8,5.8,43,0.00,CLR,,0.00,WeatherDisplay:10.37,2013-05-13 18:22:00,
2013-05-13 14:28:00,53.6,32.2,30.11,NNE,22,9.2,9.2,44,0.00,CLR,,0.00,WeatherDisplay:10.37,2013-05-13 18:28:00,
2013-05-13 14:33:00,53.6,31.6,30.11,NNE,22,10.4,10.4,43,0.00,CLR,,0.00,WeatherDisplay:10.37,2013-05-13 18:33:00,
2013-05-13 14:38:00,53.4,30.9,30.11,NNE,22,9.2,9.2,42,0.00,CLR,,0.00,WeatherDisplay:10.37,2013-05-13 18:38:00,
2013-05-13 14:43:00,54.1,31.5,30.11,NNE,22,4.8,5.0,42,0.00,CLR,,0.00,WeatherDisplay:10.37,2013-05-13 18:43:00,
2013-05-13 14:48:00,54.7,32.0,30.11,NNE,22,3.5,3.5,42,0.00,CLR,,0.00,WeatherDisplay:10.37,2013-05-13 18:48:00,
2013-05-13 14:53:00,54.3,31.7,30.10,NNE,22,5.8,7.1,42,0.00,CLR,,0.00,WeatherDisplay:10.37,2013-05-13 18:53:00,
2013-05-13 14:58:00,54.1,31.5,30.10,NNE,22,8.4,8.8,42,0.00,CLR,,0.00,WeatherDisplay:10.37,2013-05-13 18:58:00,
2013-05-13 15:03:00,53.2,30.7,30.11,NNE,22,6.9,6.9,42,0.00,CLR,,0.00,WeatherDisplay:10.37,2013-05-13 19:03:00,
2013-05-13 15:08:00,53.8,31.8,30.10,NNE,22,0.0,0.0,43,0.00,CLR,,0.00,WeatherDisplay:10.37,2013-05-13 19:08:00,
2013-05-13 15:13:00,54.7,32.0,30.10,NNE,22,6.9,6.9,42,0.00,CLR,,0.00,WeatherDisplay:10.37,2013-05-13 19:13:00,
2013-05-13 15:18:00,55.2,32.5,30.10,NNE,22,4.6,4.8,42,0.00,CLR,,0.00,WeatherDisplay:10.37,2013-05-13 19:18:00,
2013-05-13 15:23:00,55.0,32.3,30.10,NNE,22,6.9,6.9,42,0.00,CLR,,0.00,WeatherDisplay:10.37,2013-05-13 19:23:00,
2013-05-13 15:28:00,54.0,31.4,30.10,NNE,22,2.3,2.3,42,0.00,CLR,,0.00,WeatherDisplay:10.37,2013-05-13 19:28:00,
2013-05-13 15:33:00,53.2,31.3,30.11,NNE,22,5.8,5.8,43,0.00,CLR,,0.00,WeatherDisplay:10.37,2013-05-13 19:33:00,
2013-05-13 15:38:00,53.2,31.3,30.10,NNE,22,3.5,3.5,43,0.00,CLR,,0.00,WeatherDisplay:10.37,2013-05-13 19:38:00,
2013-05-13 15:43:00,53.8,34.5,30.10,NNE,22,3.9,0.0,48,0.00,CLR,,0.00,WeatherDisplay:10.37,2013-05-13 19:43:00,
2013-05-13 15:48:00,57.0,34.7,30.10,NNE,22,3.5,3.5,43,0.00,CLR,,0.00,WeatherDisplay:10.37,2013-05-13 19:48:00,
2013-05-13 15:53:00,57.0,34.1,30.10,NNE,22,1.4,1.5,42,0.00,CLR,,0.00,WeatherDisplay:10.37,2013-05-13 19:53:00,
2013-05-13 15:58:00,55.4,32.7,30.10,NNE,22,4.8,4.8,42,0.00,CLR,,0.00,WeatherDisplay:10.37,2013-05-13 19:58:00,
2013-05-13 16:03:00,54.3,32.3,30.10,NNE,22,8.1,8.1,43,0.00,CLR,,0.00,WeatherDisplay:10.37,2013-05-13 20:03:00,
2013-05-13 16:08:00,54.7,33.2,30.09,NNE,22,0.0,0.0,44,0.00,CLR,,0.00,WeatherDisplay:10.37,2013-05-13 20:08:00,
2013-05-13 16:13:00,55.6,32.8,30.09,NNE,22,3.5,3.5,42,0.00,CLR,,0.00,WeatherDisplay:10.37,2013-05-13 20:13:00,
2013-05-13 16:18:00,55.9,33.2,30.09,NNE,22,1.1,1.5,42,0.00,CLR,,0.00,WeatherDisplay:10.37,2013-05-13 20:18:00,
2013-05-13 16:23:00,54.7,31.4,30.10,NNE,22,10.4,11.0,41,0.00,CLR,,0.00,WeatherDisplay:10.37,2013-05-13 20:23:00,
2013-05-13 16:28:00,54.1,32.1,30.10,NNE,22,1.1,0.0,43,0.00,CLR,,0.00,WeatherDisplay:10.37,2013-05-13 20:28:00,
2013-05-13 16:33:00,54.5,33.0,30.10,NNE,22,5.8,6.5,44,0.00,CLR,,0.00,WeatherDisplay:10.37,2013-05-13 20:33:00,
2013-05-13 16:38:00,55.8,33.6,30.09,NNE,22,0.0,0.4,43,0.00,CLR,,0.00,WeatherDisplay:10.37,2013-05-13 20:38:00,
2013-05-13 16:43:00,55.2,33.7,30.09,NNE,22,3.1,3.1,44,0.00,CLR,,0.00,WeatherDisplay:10.37,2013-05-13 20:43:00,
2013-05-13 16:48:00,54.7,32.6,30.08,NNE,22,3.5,3.5,43,0.00,CLR,,0.00,WeatherDisplay:10.37,2013-05-13 20:48:00,
2013-05-13 16:53:00,54.7,33.2,30.09,NNE,22,4.6,4.6,44,0.00,CLR,,0.00,WeatherDisplay:10.37,2013-05-13 20:53:00,
2013-05-13 16:58:00,55.6,34.0,30.09,NNE,22,2.3,2.3,44,0.00,CLR,,0.00,WeatherDisplay:10.37,2013-05-13 20:58:00,
2013-05-13 17:03:00,56.1,33.9,30.09,NNE,22,0.0,0.0,43,0.00,CLR,,0.00,WeatherDisplay:10.37,2013-05-13 21:03:00,
2013-05-13 17:08:00,56.5,34.2,30.09,NNE,22,3.9,4.0,43,0.00,CLR,,0.00,WeatherDisplay:10.37,2013-05-13 21:08:00,
2013-05-13 17:13:00,55.9,33.2,30.09,NNE,22,4.6,4.6,42,0.00,CLR,,0.00,WeatherDisplay:10.37,2013-05-13 21:13:00,
2013-05-13 17:18:00,54.9,32.2,30.09,NNE,22,10.4,10.4,42,0.00,CLR,,0.00,WeatherDisplay:10.37,2013-05-13 21:18:00,
2013-05-13 17:23:00,54.1,32.7,30.09,NNE,22,0.0,0.0,44,0.00,CLR,,0.00,WeatherDisplay:10.37,2013-05-13 21:23:00,
2013-05-13 17:28:00,54.7,33.2,30.08,NNE,22,4.6,4.6,44,0.00,CLR,,0.00,WeatherDisplay:10.37,2013-05-13 21:28:00,
2013-05-13 17:33:00,55.9,34.9,30.08,NNE,22,1.7,1.8,45,0.00,CLR,,0.00,WeatherDisplay:10.37,2013-05-13 21:33:00,
2013-05-13 17:38:00,56.1,35.1,30.09,NNE,22,3.5,3.5,45,0.00,CLR,,0.00,WeatherDisplay:10.37,2013-05-13 21:38:00,
2013-05-13 17:43:00,55.4,33.8,30.08,NNE,22,3.5,4.0,44,0.00,CLR,,0.00,WeatherDisplay:10.37,2013-05-13 21:43:00,
2013-05-13 17:48:00,55.2,34.2,30.08,NNE,22,6.9,6.9,45,0.00,CLR,,0.00,WeatherDisplay:10.37,2013-05-13 21:48:00,
2013-05-13 17:53:00,55.2,34.8,30.08,NNE,22,3.5,3.5,46,0.00,CLR,,0.00,WeatherDisplay:10.37,2013-05-13 21:53:00,
2013-05-13 17:58:00,55.9,34.9,30.08,NNE,22,1.2,1.7,45,0.00,CLR,,0.00,WeatherDisplay:10.37,2013-05-13 21:58:00,
2013-05-13 18:03:00,55.2,33.7,30.08,NNE,22,1.1,1.6,44,0.00,CLR,,0.00,WeatherDisplay:10.37,2013-05-13 22:03:00,
2013-05-13 18:08:00,54.5,33.6,30.08,NNE,22,3.5,3.5,45,0.00,CLR,,0.00,WeatherDisplay:10.37,2013-05-13 22:08:00,
2013-05-13 18:13:00,53.8,33.5,30.08,NNE,22,4.6,4.6,46,0.00,CLR,,0.00,WeatherDisplay:10.37,2013-05-13 22:13:00,
2013-05-13 18:18:00,53.4,33.7,30.08,NNE,22,1.1,0.0,47,0.00,CLR,,0.00,WeatherDisplay:10.37,2013-05-13 22:18:00,
2013-05-13 18:23:00,53.8,34.0,30.08,NNE,22,3.5,3.5,47,0.00,CLR,,0.00,WeatherDisplay:10.37,2013-05-13 22:23:00,
2013-05-13 18:28:00,54.0,34.7,30.08,NNE,22,0.0,0.0,48,0.00,CLR,,0.00,WeatherDisplay:10.37,2013-05-13 22:28:00,
2013-05-13 18:33:00,54.1,34.9,30.08,NNE,22,0.0,0.0,48,0.00,CLR,,0.00,WeatherDisplay:10.37,2013-05-13 22:33:00,
2013-05-13 18:38:00,53.4,34.2,30.08,NNE,22,1.1,1.1,48,0.00,CLR,,0.00,WeatherDisplay:10.37,2013-05-13 22:38:00,
2013-05-13 18:43:00,52.3,33.7,30.08,NNE,22,0.0,0.0,49,0.00,CLR,,0.00,WeatherDisplay:10.37,2013-05-13 22:43:00,
2013-05-13 18:48:00,52.0,33.9,30.09,NNE,22,0.0,0.0,50,0.00,CLR,,0.00,WeatherDisplay:10.37,2013-05-13 22:48:00,
2013-05-13 18:53:00,51.6,33.6,30.08,NNE,22,0.0,0.0,50,0.00,CLR,,0.00,WeatherDisplay:10.37,2013-05-13 22:53:00,
2013-05-13 18:58:00,52.0,33.9,30.08,NNE,22,0.0,0.0,50,0.00,CLR,,0.00,WeatherDisplay:10.37,2013-05-13 22:58:00,
2013-05-13 19:03:00,52.9,34.2,30.08,NNE,22,0.0,0.0,49,0.00,CLR,,0.00,WeatherDisplay:10.37,2013-05-13 23:03:00,
2013-05-13 19:08:00,53.2,34.6,30.08,NNE,22,3.5,3.5,49,0.00,CLR,,0.00,WeatherDisplay:10.37,2013-05-13 23:08:00,
2013-05-13 19:13:00,53.8,34.5,30.08,NNE,22,2.3,2.3,48,0.00,CLR,,0.00,WeatherDisplay:10.37,2013-05-13 23:13:00,
2013-05-13 19:18:00,54.0,34.2,30.08,NNE,22,9.2,9.2,47,0.00,CLR,,0.00,WeatherDisplay:10.37,2013-05-13 23:18:00,
2013-05-13 19:23:00,54.1,34.3,30.08,NNE,22,1.1,1.5,47,0.00,CLR,,0.00,WeatherDisplay:10.37,2013-05-13 23:23:00,
2013-05-13 19:28:00,53.4,33.7,30.08,NNE,22,0.0,0.0,47,0.00,CLR,,0.00,WeatherDisplay:10.37,2013-05-13 23:28:00,
2013-05-13 19:33:00,53.2,34.0,30.08,NNE,22,0.0,0.0,48,0.00,CLR,,0.00,WeatherDisplay:10.37,2013-05-13 23:33:00,
2013-05-13 19:38:00,52.7,33.5,30.09,NNE,22,0.0,0.0,48,0.00,CLR,,0.00,WeatherDisplay:10.37,2013-05-13 23:38:00,
2013-05-13 19:43:00,51.8,33.2,30.09,NNE,22,0.0,0.0,49,0.00,CLR,,0.00,WeatherDisplay:10.37,2013-05-13 23:43:00,
2013-05-13 19:48:00,51.6,33.6,30.09,NNE,22,0.0,0.0,50,0.00,CLR,,0.00,WeatherDisplay:10.37,2013-05-13 23:48:00,
2013-05-13 19:53:00,50.9,33.4,30.10,NNE,22,0.0,0.0,51,0.00,CLR,,0.00,WeatherDisplay:10.37,2013-05-13 23:53:00,
2013-05-13 19:58:00,50.2,33.2,30.10,NNE,22,0.0,0.0,52,0.00,CLR,,0.00,WeatherDisplay:10.37,2013-05-13 23:58:00,
2013-05-13 20:03:00,49.8,33.4,30.10,NNE,22,0.0,0.0,53,0.00,CLR,,0.00,WeatherDisplay:10.37,2013-05-14 00:03:00,
2013-05-13 20:08:00,49.3,33.3,30.10,NNE,22,0.0,0.0,54,0.00,CLR,,0.00,WeatherDisplay:10.37,2013-05-14 00:08:00,
2013-05-13 20:13:00,48.7,32.8,30.11,NNE,22,0.0,0.0,54,0.00,CLR,,0.00,WeatherDisplay:10.37,2013-05-14 00:13:00,
2013-05-13 20:18:00,48.4,32.9,30.11,NNE,22,0.0,0.0,55,0.00,CLR,,0.00,WeatherDisplay:10.37,2013-05-14 00:18:00,
2013-05-13 20:23:00,48.0,33.1,30.11,NNE,22,0.0,0.0,56,0.00,CLR,,0.00,WeatherDisplay:10.37,2013-05-14 00:23:00,
2013-05-13 20:28:00,47.5,33.0,30.11,NNE,22,0.0,0.0,57,0.00,CLR,,0.00,WeatherDisplay:10.37,2013-05-14 00:28:00,
2013-05-13 20:33:00,47.1,32.7,30.11,NNE,22,0.0,0.0,57,0.00,CLR,,0.00,WeatherDisplay:10.37,2013-05-14 00:33:00,
2013-05-13 20:38:00,46.9,32.5,30.11,NNE,22,0.0,0.0,57,0.00,CLR,,0.00,WeatherDisplay:10.37,2013-05-14 00:38:00,
2013-05-13 20:43:00,46.9,32.5,30.11,NNE,22,0.0,0.0,57,0.00,CLR,,0.00,WeatherDisplay:10.37,2013-05-14 00:43:00,
2013-05-13 20:48:00,46.6,32.6,30.11,NNE,22,0.0,0.0,58,0.00,CLR,,0.00,WeatherDisplay:10.37,2013-05-14 00:48:00,
2013-05-13 20:53:00,46.2,32.7,30.12,NNE,22,0.0,0.0,59,0.00,CLR,,0.00,WeatherDisplay:10.37,2013-05-14 00:53:00,
2013-05-13 20:58:00,46.0,32.5,30.12,NNE,22,0.0,0.0,59,0.00,CLR,,0.00,WeatherDisplay:10.37,2013-05-14 00:58:00,
2013-05-13 21:03:00,45.7,32.6,30.12,NNE,22,0.0,0.0,60,0.00,CLR,,0.00,WeatherDisplay:10.37,2013-05-14 01:03:00,
2013-05-13 21:08:00,45.5,32.8,30.13,NNE,22,0.0,0.0,61,0.00,CLR,,0.00,WeatherDisplay:10.37,2013-05-14 01:08:00,
2013-05-13 21:13:00,45.3,32.7,30.13,NNE,22,0.0,0.0,61,0.00,CLR,,0.00,WeatherDisplay:10.37,2013-05-14 01:13:00,
2013-05-13 21:18:00,45.1,32.5,30.13,NNE,22,0.0,0.0,61,0.00,CLR,,0.00,WeatherDisplay:10.37,2013-05-14 01:18:00,
2013-05-13 21:23:00,45.0,32.3,30.13,NNE,22,0.0,0.0,61,0.00,CLR,,0.00,WeatherDisplay:10.37,2013-05-14 01:23:00,
2013-05-13 21:28:00,44.8,32.5,30.13,NNE,22,0.0,0.0,62,0.00,CLR,,0.00,WeatherDisplay:10.37,2013-05-14 01:28:00,
2013-05-13 21:33:00,44.6,32.8,30.14,NNE,22,0.0,0.0,63,0.00,CLR,,0.00,WeatherDisplay:10.37,2013-05-14 01:33:00,
2013-05-13 21:38:00,44.4,32.6,30.14,NNE,22,0.0,0.0,63,0.00,CLR,,0.00,WeatherDisplay:10.37,2013-05-14 01:38:00,
2013-05-13 21:43:00,44.2,32.4,30.14,NNE,22,0.0,0.0,63,0.00,CLR,,0.00,WeatherDisplay:10.37,2013-05-14 01:43:00,
2013-05-13 21:48:00,43.9,32.5,30.14,NNE,22,0.0,0.0,64,0.00,CLR,,0.00,WeatherDisplay:10.37,2013-05-14 01:48:00,
2013-05-13 21:53:00,43.7,32.3,30.15,NNE,22,0.0,0.0,64,0.00,CLR,,0.00,WeatherDisplay:10.37,2013-05-14 01:53:00,
2013-05-13 21:58:00,43.5,32.5,30.15,NNE,22,0.0,0.0,65,0.00,CLR,,0.00,WeatherDisplay:10.37,2013-05-14 01:58:00,
2013-05-13 22:03:00,43.3,32.4,30.15,NNE,22,0.0,0.0,65,0.00,CLR,,0.00,WeatherDisplay:10.37,2013-05-14 02:03:00,
2013-05-13 22:08:00,43.0,32.0,30.15,NNE,22,0.0,0.0,65,0.00,CLR,,0.00,WeatherDisplay:10.37,2013-05-14 02:08:00,
2013-05-13 22:13:00,43.0,32.4,30.16,NNE,22,0.0,0.0,66,0.00,CLR,,0.00,WeatherDisplay:10.37,2013-05-14 02:13:00,
2013-05-13 22:18:00,42.6,32.0,30.16,NNE,22,0.0,0.0,66,0.00,CLR,,0.00,WeatherDisplay:10.37,2013-05-14 02:18:00,
2013-05-13 22:23:00,42.4,32.3,30.16,NNE,22,0.0,0.0,67,0.00,CLR,,0.00,WeatherDisplay:10.37,2013-05-14 02:23:00,
2013-05-13 22:28:00,42.1,32.3,30.16,NNE,22,0.0,0.0,68,0.00,CLR,,0.00,WeatherDisplay:10.37,2013-05-14 02:28:00,
2013-05-13 22:33:00,41.9,32.5,30.16,NNE,22,0.0,0.0,69,0.00,CLR,,0.00,WeatherDisplay:10.37,2013-05-14 02:33:00,
2013-05-13 22:38:00,41.7,32.3,30.16,NNE,22,0.0,0.0,69,0.00,CLR,,0.00,WeatherDisplay:10.37,2013-05-14 02:38:00,
2013-05-13 22:43:00,41.4,32.3,30.16,NNE,22,0.0,0.0,70,0.00,CLR,,0.00,WeatherDisplay:10.37,2013-05-14 02:43:00,
2013-05-13 22:48:00,41.2,32.1,30.16,NNE,22,0.0,0.0,70,0.00,CLR,,0.00,WeatherDisplay:10.37,2013-05-14 02:48:00,
2013-05-13 22:53:00,40.8,32.1,30.17,NNE,22,0.0,0.0,71,0.00,CLR,,0.00,WeatherDisplay:10.37,2013-05-14 02:53:00,
2013-05-13 22:58:00,40.8,32.1,30.17,NNE,22,0.0,0.0,71,0.00,CLR,,0.00,WeatherDisplay:10.37,2013-05-14 02:58:00,
2013-05-13 23:03:00,40.6,32.3,30.17,NNE,22,0.0,0.0,72,0.00,CLR,,0.00,WeatherDisplay:10.37,2013-05-14 03:03:00,
2013-05-13 23:08:00,40.3,32.0,30.17,NNE,22,0.0,0.0,72,0.00,CLR,,0.00,WeatherDisplay:10.37,2013-05-14 03:08:00,
2013-05-13 23:13:00,40.1,31.8,30.17,NNE,22,0.0,0.0,72,0.00,CLR,,0.00,WeatherDisplay:10.37,2013-05-14 03:13:00,
2013-05-13 23:18:00,39.9,32.0,30.16,NNE,22,0.0,0.0,73,0.00,CLR,,0.00,WeatherDisplay:10.37,2013-05-14 03:18:00,
2013-05-13 23:23:00,39.6,32.0,30.16,NNE,22,0.0,0.0,74,0.00,CLR,,0.00,WeatherDisplay:10.37,2013-05-14 03:23:00,
2013-05-13 23:28:00,39.4,31.8,30.17,NNE,22,0.0,0.0,74,0.00,CLR,,0.00,WeatherDisplay:10.37,2013-05-14 03:28:00,
2013-05-13 23:33:00,39.4,32.1,30.16,NNE,22,0.0,0.0,75,0.00,CLR,,0.00,WeatherDisplay:10.37,2013-05-14 03:33:00,
2013-05-13 23:38:00,39.0,31.8,30.16,NNE,22,0.0,0.0,75,0.00,CLR,,0.00,WeatherDisplay:10.37,2013-05-14 03:38:00,
2013-05-13 23:43:00,39.0,31.8,30.17,NNE,22,0.0,0.0,75,0.00,CLR,,0.00,WeatherDisplay:10.37,2013-05-14 03:43:00,
2013-05-13 23:48:00,38.8,31.9,30.16,NNE,22,0.0,0.0,76,0.00,CLR,,0.00,WeatherDisplay:10.37,2013-05-14 03:48:00,
2013-05-13 23:53:00,38.5,31.6,30.17,NNE,22,0.0,0.0,76,0.00,CLR,,0.00,WeatherDisplay:10.37,2013-05-14 03:53:00,
2013-05-13 23:58:00,38.5,31.6,30.16,NNE,22,0.0,0.0,76,0.00,CLR,,0.00,WeatherDisplay:10.37,2013-05-14 03:58:00,